Time;durP1;ratioP1;P1;durP2;ratioP2;P2;SDS_P1;SDS_P2;PMS_P1;PMS_P2;Temp;Humidity;BMP_temperature;BMP_pressure;BME280_temperature;BME280_humidity;BME280_pressure;Samples;Min_cycle;Max_cycle;Signal;HPM_P1;HPM_P2
2022/10/20 00:01:53;;;;;;;28.23;14.48;;;;;;;;;;4976733;28;20031;-87
2022/10/20 00:04:19;;;;;;;21.02;14.05;;;;;;;;;;4974887;28;20141;-88
2022/10/20 00:06:45;;;;;;;19.67;12.85;;;;;;;;;;4969867;28;20035;-88
2022/10/20 00:09:11;;;;;;;21.63;13.45;;;;;;;;;;4972129;28;20070;-87
2022/10/20 00:11:37;;;;;;;17.92;12.75;;;;;;;;;;4981801;28;20027;-87
2022/10/20 00:14:04;;;;;;;22.45;13.13;;;;;;;;;;4972115;28;20028;-87
2022/10/20 00:16:31;;;;;;;20.70;13.75;;;;;;;;;;4973532;28;20031;-87
2022/10/20 00:18:57;;;;;;;19.60;13.40;;;;;;;;;;4979698;28;20107;-88
2022/10/20 00:21:24;;;;;;;20.63;13.15;;;;;;;;;;4970059;28;20034;-89
2022/10/20 00:23:51;;;;;;;22.77;13.02;;;;;;;;;;4972613;28;20062;-87
2022/10/20 00:26:17;;;;;;;22.27;13.18;;;;;;;;;;4990275;28;20104;-85
2022/10/20 00:28:43;;;;;;;26.13;13.95;;;;;;;;;;4971742;28;20094;-86
2022/10/20 00:31:09;;;;;;;19.02;12.93;;;;;;;;;;4983648;28;20023;-87
2022/10/20 00:33:35;;;;;;;20.85;14.20;;;;;;;;;;4965762;28;20380;-88
2022/10/20 00:36:02;;;;;;;19.73;13.05;;;;;;;;;;4961622;28;20039;-87
2022/10/20 00:38:28;;;;;;;19.08;13.70;;;;;;;;;;4967926;28;20027;-88
2022/10/20 00:40:54;;;;;;;22.77;13.60;;;;;;;;;;4983204;28;20047;-88
2022/10/20 00:43:20;;;;;;;19.35;11.93;;;;;;;;;;4962111;28;20034;-88
2022/10/20 00:45:53;;;;;;;17.25;11.07;;;13.50;99.90;;;;;;4965745;28;20055;-88
2022/10/20 00:48:21;;;;;;;19.90;12.90;;;;;;;;;;4987677;28;20039;-86
2022/10/20 00:50:50;;;;;;;18.95;12.27;;;13.50;99.90;;;;;;4981481;28;20051;-86
2022/10/20 00:53:21;;;;;;;21.60;12.38;;;;;;;;;;4968994;29;20027;-88
2022/10/20 00:55:49;;;;;;;20.95;12.10;;;;;;;;;;4967838;28;20047;-87
2022/10/20 00:58:16;;;;;;;18.05;12.13;;;;;;;;;;4965036;28;20045;-85
2022/10/20 01:00:43;;;;;;;18.00;12.48;;;13.40;99.90;;;;;;4965286;28;20023;-88
2022/10/20 01:03:14;;;;;;;17.90;12.35;;;;;;;;;;4987109;28;20030;-87
2022/10/20 01:05:39;;;;;;;;;;;13.40;99.90;;;;;;4988164;28;20034;-86
2022/10/20 01:08:05;;;;;;;17.58;11.77;;;;;;;;;;4970197;28;19918;-85
2022/10/20 01:10:35;;;;;;;19.42;12.18;;;;;;;;;;4966993;28;20027;-87
2022/10/20 01:13:07;;;;;;;19.13;12.45;;;;;;;;;;4972397;28;20026;-88
2022/10/20 01:15:46;;;;;;;23.05;12.52;;;13.50;99.90;;;;;;4969703;28;20086;-87
2022/10/20 01:18:46;;;;;;;20.60;13.52;;;13.50;99.90;;;;;;4973054;28;20034;-86
2022/10/20 01:21:40;;;;;;;16.92;11.90;;;13.50;99.90;;;;;;4983904;28;20032;-86
2022/10/20 01:24:29;;;;;;;20.98;12.35;;;13.50;99.90;;;;;;4969379;28;20440;-87
2022/10/20 01:27:33;;;;;;;21.63;12.35;;;13.50;99.90;;;;;;4960586;28;20318;-86
2022/10/20 01:30:11;;;;;;;22.27;12.38;;;;;;;;;;4967477;28;20099;-86
2022/10/20 01:32:37;;;;;;;19.60;12.55;;;;;;;;;;4964638;28;20031;-85
2022/10/20 01:35:04;;;;;;;20.67;12.15;;;;;;;;;;4965037;28;20485;-88
2022/10/20 01:37:30;;;;;;;23.40;12.27;;;;;;;;;;4971294;28;20062;-88
2022/10/20 01:40:16;;;;;;;21.23;12.60;;;;;;;;;;4974246;28;20035;-87
2022/10/20 01:42:44;;;;;;;22.80;12.80;;;;;;;;;;4972355;28;20042;-86
2022/10/20 01:45:10;;;;;;;19.70;12.75;;;;;;;;;;4968215;28;20039;-86
2022/10/20 01:47:37;;;;;;;20.00;13.00;;;;;;;;;;4973711;28;20054;-86
2022/10/20 01:50:04;;;;;;;23.08;12.88;;;;;;;;;;4968969;28;20058;-86
2022/10/20 01:52:31;;;;;;;19.58;12.77;;;;;;;;;;4969679;28;20018;-88
2022/10/20 01:54:57;;;;;;;21.45;12.50;;;;;;;;;;4975600;28;20015;-87
2022/10/20 01:57:35;;;;;;;19.02;11.80;;;;;;;;;;4968093;28;20019;-89
2022/10/20 02:00:07;;;;;;;22.48;13.13;;;13.60;99.90;;;;;;4974807;28;20078;-88
2022/10/20 02:02:33;;;;;;;20.08;12.85;;;;;;;;;;4986657;28;20027;-88
2022/10/20 02:05:12;;;;;;;17.45;11.52;;;;;;;;;;4968805;28;20028;-87
2022/10/20 02:07:40;;;;;;;21.05;11.68;;;13.60;99.90;;;;;;4974418;28;20036;-88
2022/10/20 02:10:13;;;;;;;24.23;12.90;;;;;;;;;;4968709;28;20033;-86
2022/10/20 02:12:42;;;;;;;21.00;12.80;;;13.50;99.90;;;;;;4969528;28;20091;-87
2022/10/20 02:15:10;;;;;;;20.70;12.40;;;;;;;;;;4970832;28;20007;-87
2022/10/20 02:17:36;;;;;;;19.33;11.85;;;;;;;;;;4971917;28;20031;-85
2022/10/20 02:20:04;;;;;;;23.02;12.63;;;;;;;;;;4963803;28;20023;-86
2022/10/20 02:22:31;;;;;;;22.25;12.55;;;;;;;;;;4968793;28;20027;-85
2022/10/20 02:24:58;;;;;;;21.55;13.25;;;;;;;;;;4970107;28;20032;-88
2022/10/20 02:27:27;;;;;;;19.23;13.00;;;;;;;;;;4968537;28;20122;-87
2022/10/20 02:29:58;;;;;;;22.98;14.10;;;;;;;;;;4966472;28;20042;-88
2022/10/20 02:32:25;;;;;;;19.33;12.85;;;;;;;;;;4965278;28;20058;-88
2022/10/20 02:34:51;;;;;;;23.88;12.40;;;;;;;;;;4967318;28;20038;-88
2022/10/20 02:37:17;;;;;;;22.02;13.77;;;;;;;;;;4974727;28;20047;-87
2022/10/20 02:39:44;;;;;;;19.42;12.68;;;;;;;;;;4976915;28;20031;-89
2022/10/20 02:42:11;;;;;;;25.98;13.27;;;;;;;;;;4969426;28;20023;-86
2022/10/20 02:44:37;;;;;;;20.10;12.80;;;;;;;;;;4971236;28;20035;-87
2022/10/20 02:47:03;;;;;;;22.38;13.82;;;;;;;;;;4953838;29;20111;-88
2022/10/20 02:49:29;;;;;;;24.27;13.43;;;;;;;;;;4968187;28;20041;-88
2022/10/20 02:51:55;;;;;;;19.30;12.55;;;;;;;;;;4965857;28;20099;-89
2022/10/20 02:54:21;;;;;;;21.50;12.90;;;;;;;;;;4967947;28;20023;-88
2022/10/20 02:56:47;;;;;;;22.40;13.50;;;;;;;;;;4967569;28;20099;-87
2022/10/20 02:59:15;;;;;;;21.27;12.80;;;;;;;;;;4964600;28;20035;-85
2022/10/20 03:01:41;;;;;;;22.60;12.73;;;;;;;;;;4963295;28;20028;-87
2022/10/20 03:04:08;;;;;;;21.83;12.57;;;;;;;;;;4967411;28;20130;-89
2022/10/20 03:06:34;;;;;;;22.67;12.73;;;;;;;;;;4973758;28;20007;-88
2022/10/20 03:09:01;;;;;;;21.88;13.05;;;;;;;;;;4970285;28;20027;-86
2022/10/20 03:11:27;;;;;;;24.08;12.85;;;;;;;;;;4973693;28;20055;-88
2022/10/20 03:13:53;;;;;;;21.30;13.00;;;;;;;;;;4980250;28;20027;-85
2022/10/20 03:16:19;;;;;;;22.98;12.63;;;;;;;;;;4972434;28;20041;-88
2022/10/20 03:18:45;;;;;;;20.48;12.63;;;;;;;;;;4970967;28;20042;-87
2022/10/20 03:21:11;;;;;;;22.63;13.10;;;;;;;;;;4966648;28;20120;-86
2022/10/20 03:23:37;;;;;;;23.75;12.07;;;;;;;;;;4969667;28;20067;-89
2022/10/20 03:26:04;;;;;;;19.80;12.20;;;;;;;;;;4965917;28;20031;-87
2022/10/20 03:28:30;;;;;;;19.67;12.18;;;;;;;;;;4969145;28;20033;-88
2022/10/20 03:30:56;;;;;;;23.23;12.75;;;;;;;;;;4965768;28;20031;-87
2022/10/20 03:33:22;;;;;;;22.50;12.63;;;;;;;;;;4970488;28;20039;-87
2022/10/20 03:35:48;;;;;;;19.92;12.23;;;;;;;;;;4968303;28;20039;-88
2022/10/20 03:38:14;;;;;;;24.55;13.57;;;;;;;;;;4965033;28;20022;-85
2022/10/20 03:40:40;;;;;;;20.73;12.48;;;;;;;;;;4971373;28;20023;-87
2022/10/20 03:43:06;;;;;;;23.73;13.23;;;;;;;;;;4965207;28;20024;-88
2022/10/20 03:45:32;;;;;;;23.58;13.18;;;;;;;;;;4967512;28;20034;-89
2022/10/20 03:47:58;;;;;;;25.73;13.27;;;;;;;;;;4971724;28;20051;-88
2022/10/20 03:50:25;;;;;;;22.70;12.60;;;;;;;;;;4970265;28;20027;-88
2022/10/20 03:52:51;;;;;;;22.92;13.20;;;;;;;;;;4978397;28;20024;-88
2022/10/20 03:55:18;;;;;;;22.63;12.95;;;;;;;;;;4975127;28;20031;-88
2022/10/20 03:57:44;;;;;;;27.25;14.00;;;;;;;;;;4966901;28;20442;-87
2022/10/20 04:00:10;;;;;;;23.13;13.52;;;;;;;;;;4967818;28;20158;-86
2022/10/20 04:02:38;;;;;;;21.40;13.07;;;;;;;;;;4968232;28;20043;-87
2022/10/20 04:05:05;;;;;;;23.98;14.25;;;;;;;;;;4966226;28;20031;-90
2022/10/20 04:07:31;;;;;;;22.17;13.82;;;;;;;;;;4981048;28;20023;-89
2022/10/20 04:09:57;;;;;;;20.55;12.55;;;;;;;;;;4993277;28;20031;-88
2022/10/20 04:12:24;;;;;;;24.55;12.90;;;;;;;;;;4978927;28;20015;-87
2022/10/20 04:14:50;;;;;;;21.05;12.65;;;;;;;;;;4974068;28;20039;-86
2022/10/20 04:17:16;;;;;;;20.52;13.07;;;;;;;;;;4963189;28;20307;-86
2022/10/20 04:19:42;;;;;;;21.73;12.25;;;;;;;;;;4984638;28;20071;-87
2022/10/20 04:22:08;;;;;;;21.65;12.60;;;;;;;;;;4967997;28;20035;-86
2022/10/20 04:24:34;;;;;;;21.30;13.10;;;;;;;;;;4968776;28;20015;-86
2022/10/20 04:27:00;;;;;;;22.42;13.27;;;;;;;;;;4990664;28;20031;-88
2022/10/20 04:29:26;;;;;;;21.30;12.45;;;;;;;;;;4976049;28;20027;-87
2022/10/20 04:31:52;;;;;;;20.83;13.02;;;;;;;;;;4968185;28;20092;-87
2022/10/20 04:34:18;;;;;;;21.67;12.70;;;;;;;;;;4971482;28;20103;-88
2022/10/20 04:36:44;;;;;;;26.80;13.02;;;;;;;;;;4971033;28;20054;-88
2022/10/20 04:39:10;;;;;;;22.27;12.50;;;;;;;;;;4975260;28;20039;-87
2022/10/20 04:41:36;;;;;;;25.38;13.18;;;;;;;;;;4972327;28;20095;-88
2022/10/20 04:44:02;;;;;;;21.70;12.73;;;;;;;;;;4964403;28;20016;-87
2022/10/20 04:46:28;;;;;;;23.88;14.40;;;;;;;;;;4972408;28;20027;-87
2022/10/20 04:48:54;;;;;;;23.35;13.32;;;;;;;;;;4968463;28;20094;-86
2022/10/20 04:51:20;;;;;;;24.27;14.10;;;;;;;;;;4958131;28;20252;-88
2022/10/20 04:53:47;;;;;;;23.55;13.05;;;;;;;;;;4967713;28;20031;-88
2022/10/20 04:56:18;;;;;;;23.58;14.20;;;;;;;;;;4977197;28;20113;-87
2022/10/20 04:58:51;;;;;;;23.98;13.70;;;;;;;;;;4950049;28;20823;-89
2022/10/20 05:01:17;;;;;;;23.20;13.82;;;;;;;;;;4974883;28;20050;-88
2022/10/20 05:03:43;;;;;;;22.40;13.77;;;;;;;;;;4971234;28;20027;-88
2022/10/20 05:06:09;;;;;;;28.95;14.48;;;;;;;;;;4958060;28;20022;-89
2022/10/20 05:08:35;;;;;;;24.65;13.57;;;;;;;;;;4959401;28;20623;-88
2022/10/20 05:11:01;;;;;;;23.83;12.43;;;;;;;;;;4963850;28;20041;-89
2022/10/20 05:13:27;;;;;;;23.73;13.55;;;;;;;;;;4962689;28;20019;-87
2022/10/20 05:15:53;;;;;;;23.80;13.77;;;;;;;;;;4960451;28;20063;-86
2022/10/20 05:18:19;;;;;;;25.65;13.57;;;;;;;;;;4962681;28;20027;-88
2022/10/20 05:20:45;;;;;;;25.15;13.82;;;;;;;;;;4963066;28;20776;-87
2022/10/20 05:23:11;;;;;;;22.17;13.63;;;;;;;;;;4961365;28;20019;-89
2022/10/20 05:28:17;;;;;;;23.63;13.82;;;;;;;;;;4969538;23;20053;-80
2022/10/20 05:30:45;;;;;;;22.35;13.30;;;12.90;99.90;;;;;;4969677;28;20034;-79
2022/10/20 05:39:21;;;;;;;26.85;14.05;;;;;;;;;;4963954;23;20560;-79
2022/10/20 05:41:49;;;;;;;26.63;14.07;;;12.90;99.90;;;;;;4915803;28;20372;-79
2022/10/20 05:44:29;;;;;;;24.38;14.82;;;12.90;99.90;;;;;;4939858;29;20047;-80
2022/10/20 05:46:55;;;;;;;26.13;14.52;;;;;;;;;;4934363;28;20023;-78
2022/10/20 05:49:23;;;;;;;27.23;13.75;;;12.90;99.90;;;;;;4943101;28;20027;-79
2022/10/20 05:51:50;;;;;;;25.13;13.57;;;;;;;;;;4953182;29;20055;-79
2022/10/20 05:54:18;;;;;;;22.73;12.82;;;;;;;;;;4945172;28;20550;-78
2022/10/20 05:59:22;;;;;;;22.20;13.18;;;;;;;;;;5255723;23;20050;-80
2022/10/20 06:01:51;;;;;;;22.08;13.73;;;13.00;99.90;;;;;;4993292;28;20027;-78
2022/10/20 06:04:33;;;;;;;23.45;14.07;;;12.80;99.90;;;;;;4993236;28;20543;-76
2022/10/20 06:06:59;;;;;;;27.08;12.77;;;;;;;;;;4997191;28;20110;-80
2022/10/20 06:09:26;;;;;;;20.92;12.32;;;13.10;99.90;;;;;;4980979;28;20238;-76
2022/10/20 06:11:54;;;;;;;22.23;12.85;;;13.00;99.90;;;;;;4987164;28;20031;-77
2022/10/20 06:14:21;;;;;;;33.40;19.33;;;;;;;;;;4972068;28;20043;-77
2022/10/20 06:16:50;;;;;;;31.13;18.77;;;13.00;99.90;;;;;;4986703;28;20026;-78
2022/10/20 06:19:17;;;;;;;23.63;13.20;;;;;;;;;;4987955;28;20118;-77
2022/10/20 06:21:43;;;;;;;22.20;12.23;;;;;;;;;;4984696;28;20027;-76
2022/10/20 06:24:13;;;;;;;24.33;13.15;;;;;;;;;;4986667;28;20067;-77
2022/10/20 06:26:42;;;;;;;24.80;13.07;;;13.10;99.90;;;;;;4988382;28;20038;-78
2022/10/20 06:29:12;;;;;;;22.05;13.02;;;13.10;99.90;;;;;;4987474;28;20038;-75
2022/10/20 06:31:42;;;;;;;27.55;14.68;;;13.20;99.90;;;;;;4981503;28;20030;-76
2022/10/20 06:34:14;;;;;;;;;;;13.20;99.90;;;;;;4982550;28;20035;-82
2022/10/20 06:36:41;;;;;;;24.50;13.48;;;13.10;99.90;;;;;;4974039;28;19921;-79
2022/10/20 06:39:11;;;;;;;22.33;11.48;;;13.10;99.90;;;;;;4976127;28;20032;-79
2022/10/20 06:41:39;;;;;;;22.23;12.32;;;13.00;99.90;;;;;;4979903;28;20169;-81
2022/10/20 06:44:06;;;;;;;19.42;12.80;;;;;;;;;;4956443;28;20148;-77
2022/10/20 06:46:35;;;;;;;23.20;11.93;;;13.30;99.90;;;;;;4981607;28;20097;-79
2022/10/20 06:49:04;;;;;;;23.13;12.77;;;13.30;99.90;;;;;;4986211;28;20105;-77
2022/10/20 06:51:31;;;;;;;24.80;12.57;;;13.20;99.90;;;;;;4975355;28;20035;-78
2022/10/20 06:53:59;;;;;;;20.30;12.43;;;13.20;99.90;;;;;;4978925;28;20027;-77
2022/10/20 06:56:30;;;;;;;21.25;11.98;;;13.20;99.90;;;;;;4979556;28;20069;-76
2022/10/20 06:58:57;;;;;;;21.60;12.02;;;;;;;;;;4973336;28;20026;-77
2022/10/20 07:01:29;;;;;;;20.48;12.18;;;13.20;99.90;;;;;;4984885;28;20037;-76
2022/10/20 07:03:56;;;;;;;18.67;11.48;;;;;;;;;;4984103;28;20022;-78
2022/10/20 07:06:25;;;;;;;24.95;12.57;;;13.30;99.90;;;;;;4991140;28;20029;-79
2022/10/20 07:08:53;;;;;;;21.25;12.02;;;;;;;;;;4976752;28;20087;-80
2022/10/20 07:11:30;;;;;;;22.40;11.75;;;13.60;99.90;;;;;;4962893;28;20495;-78
2022/10/20 07:13:59;;;;;;;22.10;11.90;;;;;;;;;;4967755;28;20230;-79
2022/10/20 07:16:28;;;;;;;21.92;11.45;;;13.50;99.90;;;;;;4966610;28;20432;-78
2022/10/20 07:18:56;;;;;;;21.02;12.50;;;13.60;99.90;;;;;;4970244;28;20423;-79
2022/10/20 07:21:25;;;;;;;21.73;11.73;;;13.60;99.90;;;;;;4967790;28;20023;-78
2022/10/20 07:23:51;;;;;;;18.67;11.18;;;;;;;;;;4974428;28;20549;-79
2022/10/20 07:26:27;;;;;;;20.88;11.18;;;13.70;99.90;;;;;;4961119;28;20027;-78
2022/10/20 07:28:56;;;;;;;17.85;11.30;;;13.60;99.90;;;;;;4964497;28;20027;-79
2022/10/20 07:31:35;;;;;;;16.77;11.07;;;13.70;99.90;;;;;;4965037;28;20160;-77
2022/10/20 07:34:02;;;;;;;17.98;10.18;;;;;;;;;;4997601;23;20057;-81
2022/10/20 07:36:30;;;;;;;23.20;11.68;;;;;;;;;;4993665;28;20109;-80
2022/10/20 07:54:37;;;;;;;15.75;9.90;;;;;;;;;;5010299;23;20102;-92
2022/10/20 07:57:03;;;;;;;21.67;11.05;;;13.90;99.90;;;;;;4953861;28;20031;-88
2022/10/20 07:59:29;;;;;;;18.08;9.63;;;;;;;;;;4924400;29;20062;-87
2022/10/20 08:01:55;;;;;;;18.83;9.93;;;;;;;;;;4936204;29;20108;-87
2022/10/20 08:04:21;;;;;;;15.90;9.43;;;;;;;;;;4934851;29;20046;-87
2022/10/20 08:06:47;;;;;;;15.02;9.63;;;;;;;;;;4949228;28;20028;-86
2022/10/20 08:09:12;;;;;;;18.50;9.13;;;;;;;;;;4951909;28;20028;-86
2022/10/20 08:11:38;;;;;;;19.42;9.25;;;;;;;;;;4935473;29;20027;-87
2022/10/20 08:14:05;;;;;;;16.45;9.80;;;;;;;;;;4954608;28;20083;-90
2022/10/20 08:16:30;;;;;;;15.35;9.43;;;;;;;;;;4922126;29;20047;-85
2022/10/20 08:18:56;;;;;;;22.20;9.82;;;;;;;;;;4936417;29;20058;-87
2022/10/20 08:21:23;;;;;;;13.55;8.90;;;;;;;;;;4953701;28;20027;-87
2022/10/20 08:23:49;;;;;;;17.75;10.00;;;;;;;;;;4948037;28;20031;-87
2022/10/20 08:26:19;;;;;;;17.75;9.82;;;;;;;;;;4949990;28;20065;-86
2022/10/20 08:28:46;;;;;;;18.88;10.07;;;;;;;;;;4936419;29;20023;-87
2022/10/20 08:31:12;;;;;;;13.35;8.88;;;;;;;;;;4932660;29;20035;-87
2022/10/20 08:33:41;;;;;;;14.85;8.98;;;;;;;;;;4949200;28;20173;-90
2022/10/20 08:36:09;;;;;;;15.25;9.15;;;;;;;;;;4945952;29;20033;-89
2022/10/20 08:38:53;;;;;;;14.63;8.23;;;;;;;;;;4951773;29;20039;-89
2022/10/20 08:41:30;;;;;;;13.95;8.93;;;14.60;99.90;;;;;;4937052;29;20032;-87
2022/10/20 08:43:56;;;;;;;17.67;8.43;;;14.60;99.90;;;;;;4924482;29;20505;-87
2022/10/20 08:46:26;;;;;;;18.45;9.43;;;;;;;;;;4935590;29;20035;-89
2022/10/20 08:48:52;;;;;;;16.27;8.25;;;;;;;;;;4955390;28;20482;-88
2022/10/20 08:51:20;;;;;;;16.55;8.38;;;;;;;;;;4954382;28;20183;-87
2022/10/20 08:53:47;;;;;;;19.38;8.10;;;;;;;;;;4954113;28;20042;-89
2022/10/20 08:56:18;;;;;;;11.90;7.78;;;;;;;;;;4943311;29;20023;-88
2022/10/20 08:58:45;;;;;;;14.75;8.30;;;;;;;;;;4953701;28;20067;-88
2022/10/20 09:01:34;;;;;;;15.20;8.18;;;15.30;99.90;;;;;;4938300;29;20036;-87
2022/10/20 09:04:14;;;;;;;12.65;7.65;;;15.20;99.90;;;;;;4926734;29;20059;-87
2022/10/20 09:06:42;;;;;;;15.32;8.15;;;;;;;;;;4917547;29;20039;-88
2022/10/20 09:09:15;;;;;;;19.08;7.45;;;15.40;99.90;;;;;;4954472;28;20365;-86
2022/10/20 09:11:44;;;;;;;12.88;7.90;;;;;;;;;;4944135;29;20036;-88
2022/10/20 09:14:12;;;;;;;13.05;7.85;;;;;;;;;;4942156;29;20031;-85
2022/10/20 09:16:40;;;;;;;12.27;7.85;;;;;;;;;;4960052;28;20413;-87
2022/10/20 09:19:18;;;;;;;16.52;7.38;;;;;;;;;;4944098;29;20048;-90
2022/10/20 09:21:51;;;;;;;13.35;8.13;;;;;;;;;;4928020;29;20090;-88
2022/10/20 09:24:18;;;;;;;10.85;7.22;;;;;;;;;;4936489;29;20043;-86
2022/10/20 09:26:45;;;;;;;15.30;8.55;;;;;;;;;;4957993;28;20039;-86
2022/10/20 09:29:16;;;;;;;20.85;7.65;;;15.60;99.90;;;;;;4955039;28;20032;-85
2022/10/20 09:31:54;;;;;;;13.13;7.90;;;15.50;99.90;;;;;;4923808;29;20024;-86
2022/10/20 09:34:25;;;;;;;14.15;8.52;;;15.50;99.90;;;;;;4919972;29;20028;-87
2022/10/20 09:36:57;;;;;;;15.68;8.98;;;15.60;99.90;;;;;;4937380;29;20027;-86
2022/10/20 09:39:26;;;;;;;10.43;7.75;;;15.60;99.90;;;;;;4950444;28;20042;-85
2022/10/20 09:42:02;;;;;;;20.17;9.40;;;15.50;99.90;;;;;;4922673;29;20055;-85
2022/10/20 09:44:42;;;;;;;14.57;8.50;;;15.50;99.90;;;;;;4942468;29;20032;-87
2022/10/20 09:47:11;;;;;;;13.20;8.80;;;;;;;;;;4909006;29;20108;-86
2022/10/20 09:49:38;;;;;;;14.93;8.38;;;;;;;;;;4933849;29;20044;-85
2022/10/20 09:52:12;;;;;;;16.08;8.45;;;;;;;;;;4938381;29;20047;-88
2022/10/20 09:54:38;;;;;;;85.47;16.00;;;;;;;;;;4922189;29;20040;-86
2022/10/20 09:57:07;;;;;;;17.08;9.15;;;15.70;99.90;;;;;;4936132;29;20605;-88
2022/10/20 09:59:37;;;;;;;15.13;8.63;;;15.70;99.90;;;;;;4923185;29;20047;-84
2022/10/20 10:02:02;;;;;;;14.75;8.10;;;;;;;;;;4927197;29;20024;-89
2022/10/20 10:04:37;;;;;;;13.52;9.02;;;15.70;99.90;;;;;;4954519;28;20111;-86
2022/10/20 10:07:08;;;;;;;12.45;7.63;;;15.80;99.90;;;;;;4916146;29;20087;-86
2022/10/20 10:09:36;;;;;;;12.70;8.40;;;15.80;99.90;;;;;;4936182;29;20043;-87
2022/10/20 10:12:04;;;;;;;15.88;8.38;;;;;;;;;;4922359;29;20044;-86
2022/10/20 10:14:32;;;;;;;16.05;8.50;;;15.90;99.90;;;;;;4933645;29;20051;-85
2022/10/20 10:16:58;;;;;;;16.55;8.30;;;;;;;;;;4921503;29;20019;-87
2022/10/20 10:19:28;;;;;;;13.50;8.80;;;16.00;99.90;;;;;;4956020;28;20075;-86
2022/10/20 10:22:00;;;;;;;14.95;9.18;;;16.00;99.90;;;;;;4923292;29;20035;-87
2022/10/20 10:24:39;;;;;;;19.05;8.63;;;16.10;99.90;;;;;;4907917;29;20024;-87
2022/10/20 10:27:22;;;;;;;13.82;8.38;;;14.50;99.90;;;;;;4914664;29;20031;-86
2022/10/20 10:29:48;;;;;;;17.73;8.00;;;;;;;;;;4952302;28;20031;-88
2022/10/20 10:32:23;;;;;;;14.05;7.40;;;16.10;99.90;;;;;;4947101;28;20067;-87
2022/10/20 10:35:11;;;;;;;18.88;7.65;;;16.20;99.90;;;;;;4931935;29;20560;-87
2022/10/20 10:37:38;;;;;;;15.90;7.70;;;;;;;;;;4936964;29;20039;-86
2022/10/20 10:40:13;;;;;;;13.48;7.68;;;;;;;;;;4935333;29;20031;-86
2022/10/20 10:43:16;;;;;;;14.43;7.30;;;16.10;99.90;;;;;;4933985;29;20028;-87
2022/10/20 10:45:59;;;;;;;15.13;7.80;;;16.10;99.90;;;;;;4936502;29;20023;-87
2022/10/20 10:48:44;;;;;;;17.92;8.32;;;16.10;99.90;;;;;;4952289;28;20039;-89
2022/10/20 10:51:29;;;;;;;18.27;8.88;;;16.10;99.90;;;;;;4935075;29;20027;-87
2022/10/20 10:53:55;;;;;;;17.65;8.65;;;;;;;;;;4952733;28;20322;-87
2022/10/20 10:56:30;;;;;;;19.65;8.77;;;16.10;99.90;;;;;;4954384;28;20086;-87
2022/10/20 10:59:22;;;;;;;14.18;7.50;;;16.20;99.90;;;;;;4957478;28;20034;-85
2022/10/20 11:02:23;;;;;;;19.05;7.70;;;16.20;99.90;;;;;;4945158;29;20028;-85
2022/10/20 11:05:06;;;;;;;12.43;7.40;;;;;;;;;;4943974;29;20028;-88
2022/10/20 11:08:07;;;;;;;15.50;8.23;;;16.40;99.90;;;;;;4936517;29;20028;-89
2022/10/20 11:10:33;;;;;;;15.05;8.27;;;;;;;;;;4904777;29;20112;-85
2022/10/20 11:13:10;;;;;;;16.20;8.63;;;16.40;99.90;;;;;;4922489;29;20051;-88
2022/10/20 11:15:54;;;;;;;20.05;7.97;;;16.40;99.90;;;;;;4935925;29;20040;-88
2022/10/20 11:18:47;;;;;;;13.27;7.30;;;16.30;99.90;;;;;;4935535;29;20175;-85
2022/10/20 11:21:30;;;;;;;16.52;8.05;;;16.40;99.90;;;;;;4932610;29;20035;-86
2022/10/20 11:24:06;;;;;;;18.50;7.93;;;;;;;;;;4952700;28;20023;-89
2022/10/20 11:26:32;;;;;;;13.23;8.00;;;;;;;;;;4915244;29;20024;-89
2022/10/20 11:28:58;;;;;;;16.80;7.30;;;;;;;;;;4948995;29;20019;-90
2022/10/20 11:31:43;;;;;;;13.63;7.13;;;16.40;99.90;;;;;;4938220;28;20071;-89
2022/10/20 11:34:21;;;;;;;12.60;7.32;;;16.50;99.90;;;;;;4943383;29;20044;-87
2022/10/20 11:36:52;;;;;;;15.77;7.60;;;16.50;99.90;;;;;;4947843;28;20016;-87
2022/10/20 11:39:38;;;;;;;12.98;7.25;;;16.50;99.90;;;;;;4929070;29;20020;-85
2022/10/20 11:42:31;;;;;;;15.43;7.00;;;16.50;99.90;;;;;;4919145;29;20031;-85
2022/10/20 11:45:00;;;;;;;12.98;7.75;;;16.40;99.90;;;;;;4935917;29;20516;-87
2022/10/20 11:47:30;;;;;;;15.40;7.53;;;;;;;;;;4933461;29;20028;-87
2022/10/20 11:49:56;;;;;;;20.47;8.60;;;;;;;;;;4961781;28;20036;-88
2022/10/20 11:52:52;;;;;;;14.38;7.45;;;16.50;99.90;;;;;;4927967;29;20036;-88
2022/10/20 11:55:23;;;;;;;12.90;6.93;;;16.50;99.90;;;;;;4941478;29;20042;-88
2022/10/20 11:58:09;;;;;;;15.98;6.25;;;16.50;99.90;;;;;;4941192;29;20485;-88
2022/10/20 12:00:55;;;;;;;14.15;6.38;;;16.60;99.90;;;;;;4921184;29;20128;-88
2022/10/20 12:04:03;;;;;;;15.02;7.47;;;16.70;99.90;;;;;;4936683;29;20036;-88
2022/10/20 12:06:46;;;;;;;11.73;6.32;;;16.80;99.90;;;;;;4951146;28;20031;-88
2022/10/20 12:09:12;;;;;;;11.57;6.60;;;;;;;;;;4932033;29;20044;-90
2022/10/20 12:12:04;;;;;;;13.48;7.00;;;16.80;99.90;;;;;;4953776;28;20035;-88
2022/10/20 12:14:35;;;;;;;13.00;6.60;;;;;;;;;;4914144;29;20072;-88
2022/10/20 12:17:24;;;;;;;15.90;7.15;;;16.80;99.90;;;;;;4931837;29;20027;-89
2022/10/20 12:19:51;;;;;;;10.18;6.40;;;;;;;;;;4909183;29;20044;-88
2022/10/20 12:22:16;;;;;;;12.52;6.25;;;;;;;;;;4943034;28;20164;-87
2022/10/20 12:25:02;;;;;;;13.20;6.03;;;16.90;99.90;;;;;;4933118;29;20093;-87
2022/10/20 12:27:28;;;;;;;13.10;6.88;;;;;;;;;;4954806;28;20023;-85
2022/10/20 12:29:54;;;;;;;10.73;6.40;;;;;;;;;;4937570;29;20152;-87
2022/10/20 12:32:24;;;;;;;12.90;6.43;;;16.90;99.90;;;;;;4941965;29;20047;-88
2022/10/20 12:34:52;;;;;;;13.30;7.00;;;16.90;99.90;;;;;;4918540;29;20079;-89
2022/10/20 12:37:28;;;;;;;16.25;7.10;;;16.90;99.90;;;;;;4912813;29;20040;-86
2022/10/20 12:39:56;;;;;;;15.05;7.78;;;16.90;99.90;;;;;;4920840;29;20031;-87
2022/10/20 12:42:29;;;;;;;15.48;7.57;;;16.90;99.90;;;;;;4918441;29;20043;-88
2022/10/20 12:45:03;;;;;;;14.55;7.78;;;16.90;99.90;;;;;;4921624;29;20035;-86
2022/10/20 12:47:31;;;;;;;12.05;7.30;;;16.90;99.90;;;;;;4916558;29;20031;-87
2022/10/20 12:50:22;;;;;;;16.33;7.18;;;16.80;99.90;;;;;;4919747;29;20039;-90
2022/10/20 12:52:48;;;;;;;13.95;6.97;;;;;;;;;;4924128;29;20115;-86
2022/10/20 12:55:16;;;;;;;18.23;7.45;;;;;;;;;;4936757;29;20039;-86
2022/10/20 12:57:44;;;;;;;16.02;7.88;;;;;;;;;;4949917;28;20128;-86
2022/10/20 13:00:16;;;;;;;14.93;7.55;;;;;;;;;;4931233;29;20039;-87
2022/10/20 13:02:49;;;;;;;16.90;7.43;;;;;;;;;;4930328;29;20078;-87
2022/10/20 13:05:15;;;;;;;14.07;7.50;;;;;;;;;;4923601;29;20051;-85
2022/10/20 13:07:44;;;;;;;14.48;7.72;;;;;;;;;;4935086;29;20032;-85
2022/10/20 13:10:29;;;;;;;19.15;8.30;;;;;;;;;;4953787;28;20035;-81
2022/10/20 13:13:00;;;;;;;16.30;7.60;;;;;;;;;;4938414;29;20031;-85
2022/10/20 13:15:55;;;;;;;15.52;7.97;;;16.60;99.90;;;;;;4922011;29;20058;-82
2022/10/20 13:18:27;;;;;;;17.52;8.50;;;16.60;99.90;;;;;;4918323;29;20040;-84
2022/10/20 13:21:21;;;;;;;15.98;8.45;;;16.50;99.90;;;;;;4935808;29;20036;-84
2022/10/20 13:24:12;;;;;;;15.82;8.60;;;16.40;99.90;;;;;;4950824;28;20031;-85
2022/10/20 13:26:45;;;;;;;14.20;8.00;;;;;;;;;;4920310;29;20031;-86
2022/10/20 13:29:35;;;;;;;18.83;9.43;;;16.50;99.90;;;;;;4948731;29;20023;-86
2022/10/20 13:32:13;;;;;;;19.17;9.13;;;16.40;99.90;;;;;;4920770;29;20095;-85
2022/10/20 13:34:39;;;;;;;17.95;8.60;;;;;;;;;;4916205;29;20031;-84
2022/10/20 13:37:18;;;;;;;19.45;8.45;;;16.50;99.90;;;;;;4933452;29;20336;-85
2022/10/20 13:40:02;;;;;;;19.27;8.93;;;16.50;99.90;;;;;;4924797;29;20118;-87
2022/10/20 13:42:40;;;;;;;16.85;8.38;;;16.50;99.90;;;;;;4948542;28;20027;-82
2022/10/20 13:45:11;;;;;;;18.55;9.23;;;;;;;;;;4931755;29;20050;-86
2022/10/20 13:47:37;;;;;;;15.23;8.77;;;;;;;;;;4937239;29;20027;-85
2022/10/20 13:50:13;;;;;;;21.35;9.35;;;16.50;99.90;;;;;;4938611;29;20036;-88
2022/10/20 13:52:46;;;;;;;20.27;8.73;;;16.50;99.90;;;;;;4933737;29;20031;-86
2022/10/20 13:55:20;;;;;;;17.45;9.65;;;16.50;99.90;;;;;;4932886;29;20032;-83
2022/10/20 13:57:54;;;;;;;17.25;10.20;;;16.60;99.90;;;;;;4937253;29;20039;-84
2022/10/20 14:00:30;;;;;;;16.23;9.73;;;16.60;99.90;;;;;;4933635;29;20036;-85
2022/10/20 14:02:56;;;;;;;19.30;11.32;;;;;;;;;;4950662;28;20051;-85
2022/10/20 14:05:23;;;;;;;17.20;9.65;;;16.70;99.90;;;;;;4922395;29;20039;-87
2022/10/20 14:07:49;;;;;;;16.48;9.25;;;;;;;;;;4943217;29;20036;-87
2022/10/20 14:10:41;;;;;;;19.48;10.10;;;16.60;99.90;;;;;;4957059;28;20098;-88
2022/10/20 14:13:12;;;;;;;21.42;9.32;;;16.60;99.90;;;;;;4939011;28;20011;-88
2022/10/20 14:15:38;;;;;;;17.08;10.15;;;;;;;;;;4943897;28;20064;-89
2022/10/20 14:18:08;;;;;;;17.15;9.80;;;;;;;;;;4970301;28;20020;-88
2022/10/20 14:20:40;;;;;;;18.75;9.70;;;;;;;;;;4945188;29;20107;-85
2022/10/20 14:23:06;;;;;;;17.42;9.63;;;;;;;;;;4950615;28;20731;-85
2022/10/20 14:25:32;;;;;;;28.42;13.20;;;;;;;;;;4950959;28;20055;-84
2022/10/20 14:27:59;;;;;;;17.23;9.07;;;;;;;;;;4940985;29;20401;-84